Time;durP1;ratioP1;P1;durP2;ratioP2;P2;SDS_P1;SDS_P2;PMS_P1;PMS_P2;Temp;Humidity;BMP_temperature;BMP_pressure;BME280_temperature;BME280_humidity;BME280_pressure;Samples;Min_cycle;Max_cycle;Signal;HPM_P1;HPM_P2
2022/04/10 00:00:03;;;;;;;6.07;5.40;;;3.30;82.60;;;;;;5090168;28;20232;-56
2022/04/10 00:02:30;;;;;;;6.47;5.05;;;3.30;82.50;;;;;;5090128;28;20568;-54
2022/04/10 00:06:55;;;;;;;7.15;5.30;;;3.20;82.70;;;;;;5090405;28;20619;-56
2022/04/10 00:09:22;;;;;;;7.22;5.88;;;3.30;82.60;;;;;;5089969;28;20204;-56
2022/04/10 00:11:49;;;;;;;6.60;6.00;;;3.30;82.50;;;;;;5090200;28;20286;-56
2022/04/10 00:14:16;;;;;;;11.93;7.13;;;3.30;82.20;;;;;;5088912;28;20287;-55
2022/04/10 00:16:43;;;;;;;6.68;6.07;;;3.40;82.20;;;;;;5090117;28;20204;-55
2022/04/10 00:19:10;;;;;;;9.93;5.70;;;3.40;81.70;;;;;;5090162;28;20206;-55
2022/04/10 00:21:36;;;;;;;7.07;6.05;;;3.40;81.40;;;;;;5090039;28;20210;-56
2022/04/10 00:24:05;;;;;;;7.50;5.90;;;3.40;81.30;;;;;;5089737;28;20628;-56
2022/04/10 00:26:32;;;;;;;6.60;5.90;;;3.40;81.30;;;;;;5089998;28;20257;-56
2022/04/10 00:29:00;;;;;;;7.28;6.18;;;3.40;81.40;;;;;;5088646;28;20699;-56
2022/04/10 00:31:27;;;;;;;8.00;6.80;;;3.50;81.10;;;;;;5089960;28;20200;-55
2022/04/10 00:33:54;;;;;;;6.30;5.70;;;3.60;80.80;;;;;;5089802;28;20295;-56
2022/04/10 00:36:21;;;;;;;6.20;5.60;;;3.60;80.10;;;;;;5089805;28;20215;-55
2022/04/10 00:38:48;;;;;;;6.40;5.80;;;3.60;80.20;;;;;;5089530;28;20201;-55
2022/04/10 00:41:16;;;;;;;7.57;6.05;;;3.50;80.50;;;;;;5089725;28;20203;-56
2022/04/10 00:44:01;;;;;;;5.40;4.90;;;3.50;80.40;;;;;;5088442;28;20224;-56
2022/04/10 00:46:28;;;;;;;6.15;5.55;;;3.50;80.60;;;;;;5089615;28;20319;-56
2022/04/10 00:48:55;;;;;;;6.72;6.03;;;3.60;80.30;;;;;;5089626;28;20242;-55
2022/04/10 00:54:06;;;;;;;6.05;5.50;;;3.60;80.20;;;;;;5089505;28;20276;-56
2022/04/10 00:56:35;;;;;;;6.70;6.10;;;3.60;80.10;;;;;;5089525;28;20200;-56
2022/04/10 00:59:02;;;;;;;6.75;6.00;;;3.70;79.90;;;;;;5088065;28;20196;-56
2022/04/10 01:01:29;;;;;;;8.70;6.07;;;3.60;79.70;;;;;;5089345;28;20204;-55
2022/04/10 01:03:56;;;;;;;8.63;5.97;;;3.50;80.20;;;;;;5089247;28;20638;-55
2022/04/10 01:06:23;;;;;;;6.50;5.90;;;3.60;80.90;;;;;;5089165;28;20246;-56
2022/04/10 01:08:50;;;;;;;6.10;5.50;;;3.70;80.40;;;;;;5089170;28;20291;-55
2022/04/10 01:11:18;;;;;;;5.93;5.38;;;3.70;79.60;;;;;;5089169;28;20243;-55
2022/04/10 01:13:47;;;;;;;6.43;5.82;;;3.70;79.30;;;;;;5087847;28;20197;-55
2022/04/10 01:16:14;;;;;;;6.43;5.72;;;3.80;79.70;;;;;;5087182;28;20730;-55
2022/04/10 01:18:42;;;;;;;6.63;6.13;;;3.90;79.40;;;;;;5075341;28;20215;-56
2022/04/10 01:21:11;;;;;;;5.97;5.53;;;3.90;78.50;;;;;;5075422;28;20262;-55
2022/04/10 01:23:40;;;;;;;6.75;6.10;;;3.90;78.60;;;;;;5075302;28;20329;-55
2022/04/10 01:26:15;;;;;;;7.10;6.50;;;3.90;78.50;;;;;;5075581;28;20319;-55
2022/04/10 01:28:57;;;;;;;7.22;6.53;;;3.80;78.90;;;;;;5073836;28;20287;-55
2022/04/10 01:31:23;;;;;;;6.35;5.95;;;3.70;79.20;;;;;;5075308;28;20201;-55
2022/04/10 01:33:51;;;;;;;7.28;5.30;;;3.40;80.30;;;;;;5075370;28;20201;-56
2022/04/10 01:36:19;;;;;;;7.38;6.60;;;3.40;80.80;;;;;;5075171;28;20630;-55
2022/04/10 01:38:47;;;;;;;8.88;6.32;;;3.40;80.90;;;;;;5075159;28;20228;-55
2022/04/10 01:41:15;;;;;;;7.30;6.65;;;3.40;81.20;;;;;;5075014;28;20287;-55
2022/04/10 01:43:46;;;;;;;7.78;7.07;;;3.50;81.30;;;;;;5073837;28;20675;-55
2022/04/10 01:46:13;;;;;;;6.85;6.25;;;3.60;80.90;;;;;;5074948;28;20243;-55
2022/04/10 01:48:40;;;;;;;8.60;6.50;;;3.70;80.40;;;;;;5075020;28;20563;-56
2022/04/10 01:51:07;;;;;;;7.35;6.47;;;3.70;80.10;;;;;;5075000;28;20236;-56
2022/04/10 01:53:35;;;;;;;6.45;5.95;;;3.70;80.40;;;;;;5075016;28;20204;-55
2022/04/10 01:56:03;;;;;;;6.50;5.95;;;3.70;80.00;;;;;;5074773;28;20216;-55
2022/04/10 01:58:52;;;;;;;6.03;5.47;;;3.60;80.50;;;;;;5073436;28;20292;-55
2022/04/10 02:01:20;;;;;;;6.43;5.93;;;3.70;80.60;;;;;;5070338;28;20628;-56
2022/04/10 02:03:47;;;;;;;7.50;6.57;;;3.70;80.40;;;;;;5074639;28;20207;-55
2022/04/10 02:06:15;;;;;;;6.20;5.80;;;3.70;80.20;;;;;;5074297;28;20247;-55
2022/04/10 02:08:42;;;;;;;7.20;6.60;;;3.70;80.40;;;;;;5074482;28;20231;-55
2022/04/10 02:11:15;;;;;;;6.90;5.75;;;3.60;80.40;;;;;;5074691;28;20208;-55
2022/04/10 02:13:43;;;;;;;7.20;6.50;;;3.60;81.10;;;;;;5073200;28;20205;-55
2022/04/10 02:16:12;;;;;;;6.65;6.05;;;3.60;81.00;;;;;;5074464;28;20211;-55
2022/04/10 02:18:39;;;;;;;6.95;6.25;;;3.70;80.70;;;;;;5074385;28;20215;-55
2022/04/10 02:21:07;;;;;;;7.68;6.97;;;3.70;80.30;;;;;;5074314;28;20296;-55
2022/04/10 02:23:34;;;;;;;7.70;6.93;;;3.90;80.30;;;;;;5074332;28;20660;-55
2022/04/10 02:26:01;;;;;;;7.80;7.10;;;3.90;79.80;;;;;;5074118;28;20228;-55
2022/04/10 02:28:30;;;;;;;7.40;6.70;;;4.00;79.00;;;;;;5072053;28;20288;-55
2022/04/10 02:30:57;;;;;;;7.05;6.25;;;3.80;79.20;;;;;;5074250;28;20203;-56
2022/04/10 02:33:24;;;;;;;7.35;6.65;;;3.60;79.90;;;;;;5073949;28;20308;-55
2022/04/10 02:35:51;;;;;;;7.32;6.72;;;3.60;80.50;;;;;;5074210;28;20215;-55
2022/04/10 02:38:18;;;;;;;7.13;6.40;;;3.50;80.70;;;;;;5074138;28;20239;-55
2022/04/10 02:40:45;;;;;;;9.55;6.40;;;3.50;80.70;;;;;;5073855;28;20236;-55
2022/04/10 02:43:26;;;;;;;8.13;7.03;;;3.60;80.70;;;;;;5072650;28;20209;-55
2022/04/10 02:45:54;;;;;;;8.15;6.55;;;3.50;80.70;;;;;;5071461;28;20734;-55
2022/04/10 02:48:21;;;;;;;7.05;6.45;;;3.40;81.00;;;;;;5073782;28;20663;-55
2022/04/10 02:50:48;;;;;;;8.40;6.85;;;3.50;81.20;;;;;;5073746;28;20294;-55
2022/04/10 02:53:15;;;;;;;7.30;6.30;;;3.40;81.30;;;;;;5073832;28;20205;-55
2022/04/10 02:55:42;;;;;;;8.10;7.40;;;3.30;81.20;;;;;;5073482;28;20565;-55
2022/04/10 02:58:09;;;;;;;7.38;6.68;;;3.30;81.70;;;;;;5072235;28;20201;-55
2022/04/10 03:00:36;;;;;;;7.82;7.13;;;3.30;81.50;;;;;;5073465;28;20237;-55
2022/04/10 03:03:04;;;;;;;6.93;6.30;;;3.20;81.90;;;;;;5073599;28;20196;-55
2022/04/10 03:05:31;;;;;;;9.50;7.28;;;3.20;81.90;;;;;;5073247;28;20770;-55
2022/04/10 03:07:58;;;;;;;7.88;6.80;;;3.20;82.20;;;;;;5073389;28;20205;-55
2022/04/10 03:10:24;;;;;;;8.02;7.05;;;3.30;81.90;;;;;;5073264;28;20300;-55
2022/04/10 03:12:51;;;;;;;8.20;6.60;;;3.10;81.80;;;;;;5072013;28;20225;-55
2022/04/10 03:15:18;;;;;;;7.18;6.57;;;3.10;82.10;;;;;;5073275;28;20719;-56
2022/04/10 03:17:45;;;;;;;8.27;6.88;;;3.10;81.90;;;;;;5073242;28;20733;-55
2022/04/10 03:20:13;;;;;;;8.75;6.78;;;3.20;81.90;;;;;;5073155;28;20207;-56
2022/04/10 03:22:40;;;;;;;8.60;7.75;;;3.20;81.60;;;;;;5073211;28;20303;-56
2022/04/10 03:25:08;;;;;;;9.88;7.22;;;3.10;81.90;;;;;;5072970;28;20207;-56
2022/04/10 03:27:35;;;;;;;11.32;7.30;;;3.10;82.00;;;;;;5071854;28;20232;-56
2022/04/10 03:30:02;;;;;;;7.40;6.70;;;3.10;81.80;;;;;;5073184;28;20228;-56
2022/04/10 03:32:29;;;;;;;8.55;7.75;;;3.00;81.70;;;;;;5073028;28;20626;-55
2022/04/10 03:34:56;;;;;;;9.57;8.68;;;3.00;82.60;;;;;;5072980;28;20354;-55
2022/04/10 03:37:24;;;;;;;7.80;7.00;;;3.00;82.40;;;;;;5073083;28;20235;-55
2022/04/10 03:39:51;;;;;;;8.32;7.47;;;3.00;82.50;;;;;;5072675;28;20209;-55
2022/04/10 03:42:18;;;;;;;9.45;7.60;;;3.00;82.40;;;;;;5071605;28;20201;-56
2022/04/10 03:44:45;;;;;;;9.73;8.15;;;3.10;82.30;;;;;;5072980;28;20200;-55
2022/04/10 03:47:12;;;;;;;8.00;7.15;;;2.90;82.00;;;;;;5072839;28;20271;-55
2022/04/10 03:49:38;;;;;;;12.13;8.32;;;2.90;82.80;;;;;;5072882;28;20237;-55
2022/04/10 03:52:06;;;;;;;8.80;7.90;;;3.00;82.70;;;;;;5072812;28;20651;-56
2022/04/10 03:54:34;;;;;;;9.32;8.38;;;2.90;81.80;;;;;;5072723;28;20214;-55
2022/04/10 03:57:01;;;;;;;9.25;8.13;;;2.90;82.00;;;;;;5072490;28;20215;-55
2022/04/10 03:59:28;;;;;;;9.20;8.30;;;3.00;82.10;;;;;;5071957;28;20205;-56
2022/04/10 04:01:55;;;;;;;10.95;8.30;;;3.00;81.70;;;;;;5072865;28;20208;-55
2022/04/10 04:04:22;;;;;;;8.20;7.40;;;3.00;81.60;;;;;;5072781;28;20205;-55
2022/04/10 04:06:49;;;;;;;12.52;9.30;;;3.10;81.40;;;;;;5072463;28;20711;-55
2022/04/10 04:09:16;;;;;;;11.05;8.48;;;3.10;80.90;;;;;;5072403;28;20311;-55
2022/04/10 04:11:44;;;;;;;11.07;7.95;;;3.20;81.00;;;;;;5072645;28;20287;-55
2022/04/10 04:14:13;;;;;;;9.68;8.05;;;3.10;80.80;;;;;;5071380;28;20292;-55
2022/04/10 04:16:40;;;;;;;9.13;8.23;;;3.00;80.90;;;;;;5072752;28;20201;-55
2022/04/10 04:19:07;;;;;;;10.20;8.90;;;3.00;81.30;;;;;;5072571;28;20200;-55
2022/04/10 04:21:34;;;;;;;11.60;7.95;;;3.00;81.40;;;;;;5072500;28;20207;-55
2022/04/10 04:24:01;;;;;;;8.82;8.00;;;3.00;81.20;;;;;;5072331;28;20287;-55
2022/04/10 04:26:28;;;;;;;12.77;8.52;;;3.10;81.20;;;;;;5072321;28;20587;-55
2022/04/10 04:28:56;;;;;;;9.48;8.60;;;3.20;81.20;;;;;;5071172;28;20243;-55
2022/04/10 04:31:23;;;;;;;9.18;8.38;;;3.20;80.70;;;;;;5072448;28;20244;-56
2022/04/10 04:33:49;;;;;;;10.00;9.00;;;3.20;80.50;;;;;;5072489;28;20201;-55
2022/04/10 04:36:17;;;;;;;10.15;9.02;;;3.10;80.80;;;;;;5072307;28;20308;-55
2022/04/10 04:38:44;;;;;;;9.80;8.90;;;3.20;80.50;;;;;;5072368;28;20384;-55
2022/04/10 04:41:12;;;;;;;9.73;8.68;;;3.30;80.60;;;;;;5072275;28;20215;-55
2022/04/10 04:43:38;;;;;;;9.80;8.73;;;3.40;80.20;;;;;;5071171;28;20557;-55
2022/04/10 04:46:07;;;;;;;11.88;9.00;;;3.40;79.50;;;;;;5072153;28;20243;-55
2022/04/10 04:48:33;;;;;;;10.63;9.50;;;3.40;79.50;;;;;;5072201;28;20295;-55
2022/04/10 04:51:02;;;;;;;10.40;9.35;;;3.30;79.70;;;;;;5072286;28;20209;-55
2022/04/10 04:53:29;;;;;;;11.02;9.55;;;3.40;79.90;;;;;;5075547;28;20250;-55
2022/04/10 04:55:56;;;;;;;11.32;10.13;;;3.40;79.80;;;;;;5075803;28;20295;-55
2022/04/10 04:58:22;;;;;;;9.40;8.48;;;3.40;79.60;;;;;;5074641;28;20299;-55
2022/04/10 05:00:49;;;;;;;10.35;9.30;;;3.50;79.30;;;;;;5075843;28;20211;-55
2022/04/10 05:03:17;;;;;;;11.07;9.35;;;3.50;79.50;;;;;;5075915;28;20215;-55
2022/04/10 05:05:44;;;;;;;10.40;9.50;;;3.50;78.90;;;;;;5075420;28;20264;-55
2022/04/10 05:08:11;;;;;;;9.63;8.52;;;3.50;79.20;;;;;;5075633;28;20319;-55
2022/04/10 05:10:38;;;;;;;10.60;9.18;;;3.40;79.30;;;;;;5075556;28;20651;-55
2022/04/10 05:13:07;;;;;;;10.25;8.60;;;3.40;79.40;;;;;;5074301;28;20197;-55
2022/04/10 05:15:35;;;;;;;11.38;9.50;;;3.50;79.60;;;;;;5075866;28;20560;-55
2022/04/10 05:18:02;;;;;;;9.35;8.40;;;3.50;79.60;;;;;;5075692;28;20204;-55
2022/04/10 05:20:30;;;;;;;12.13;9.65;;;3.50;79.00;;;;;;5075396;28;20215;-55
2022/04/10 05:22:57;;;;;;;9.13;8.20;;;3.60;79.10;;;;;;5075519;28;20239;-55
2022/04/10 05:25:24;;;;;;;9.50;8.70;;;3.70;78.60;;;;;;5075362;28;20280;-55
2022/04/10 05:27:51;;;;;;;10.20;9.30;;;3.60;78.60;;;;;;5074426;28;20237;-55
2022/04/10 05:30:18;;;;;;;10.27;9.43;;;3.70;78.60;;;;;;5075434;28;20205;-55
2022/04/10 05:32:54;;;;;;;9.95;9.05;;;3.80;78.40;;;;;;5075237;28;20291;-55
2022/04/10 05:35:21;;;;;;;9.68;8.88;;;3.80;78.10;;;;;;5075274;28;20637;-54
2022/04/10 05:37:49;;;;;;;9.63;8.75;;;3.80;78.50;;;;;;5075190;28;20659;-55
2022/04/10 05:40:17;;;;;;;9.50;8.60;;;3.70;78.40;;;;;;5075071;28;20205;-56
2022/04/10 05:42:44;;;;;;;10.40;9.40;;;3.70;78.00;;;;;;5073846;28;20205;-55
2022/04/10 05:45:12;;;;;;;9.93;8.98;;;3.80;78.10;;;;;;5075066;28;20299;-55
2022/04/10 05:47:41;;;;;;;11.43;9.60;;;3.70;78.00;;;;;;5074984;28;20233;-55
2022/04/10 05:50:09;;;;;;;10.25;9.25;;;3.70;78.50;;;;;;5074906;28;20244;-55
2022/04/10 05:52:38;;;;;;;10.05;9.05;;;3.70;78.70;;;;;;5075001;28;20211;-55
2022/04/10 05:55:08;;;;;;;10.05;9.05;;;3.60;78.70;;;;;;5074765;28;20208;-55
2022/04/10 05:57:35;;;;;;;10.98;9.88;;;3.70;78.80;;;;;;5073678;28;20283;-55
2022/04/10 06:00:02;;;;;;;10.65;8.85;;;3.70;78.20;;;;;;5074739;28;20215;-55
2022/04/10 06:02:29;;;;;;;10.57;9.57;;;3.70;78.30;;;;;;5074682;28;20201;-55
2022/04/10 06:04:56;;;;;;;9.93;8.93;;;3.80;78.00;;;;;;5074555;28;20714;-55
2022/04/10 06:07:23;;;;;;;9.85;8.80;;;3.80;77.70;;;;;;5074548;28;20236;-55
2022/04/10 06:09:50;;;;;;;10.23;9.23;;;3.80;77.50;;;;;;5074476;28;20205;-55
2022/04/10 06:12:19;;;;;;;9.93;8.95;;;3.80;77.90;;;;;;5073460;28;20201;-55
2022/04/10 06:14:45;;;;;;;9.80;8.80;;;3.90;77.80;;;;;;5074460;28;20200;-55
2022/04/10 06:17:12;;;;;;;12.50;8.73;;;3.90;77.50;;;;;;5074430;28;20571;-55
2022/04/10 06:19:39;;;;;;;9.18;8.38;;;3.90;77.20;;;;;;5074403;28;20204;-55
2022/04/10 06:22:07;;;;;;;9.35;8.45;;;3.90;77.70;;;;;;5074443;28;20211;-55
2022/04/10 06:24:34;;;;;;;8.65;7.95;;;4.00;77.60;;;;;;5074141;28;20212;-55
2022/04/10 06:27:01;;;;;;;9.18;8.40;;;4.00;77.60;;;;;;5073875;28;20264;-55
2022/04/10 06:29:29;;;;;;;9.90;9.00;;;4.20;77.90;;;;;;5073261;28;20200;-55
2022/04/10 06:31:57;;;;;;;9.35;8.43;;;4.30;76.30;;;;;;5074251;28;20204;-55
2022/04/10 06:34:23;;;;;;;9.20;8.40;;;4.30;76.40;;;;;;5074131;28;20740;-55
2022/04/10 06:36:50;;;;;;;9.43;8.60;;;4.30;76.50;;;;;;5074123;28;20236;-56
2022/04/10 06:39:17;;;;;;;12.63;9.65;;;4.40;76.40;;;;;;5074156;28;20201;-55
2022/04/10 06:41:44;;;;;;;9.40;8.60;;;4.50;76.20;;;;;;5073552;28;20283;-55
2022/04/10 06:44:11;;;;;;;10.05;9.25;;;4.50;76.00;;;;;;5072748;28;20247;-55
2022/04/10 06:46:39;;;;;;;10.27;9.25;;;4.60;75.40;;;;;;5073922;28;20678;-55
2022/04/10 06:49:06;;;;;;;9.32;8.43;;;4.60;75.50;;;;;;5073875;28;20731;-56
2022/04/10 06:51:33;;;;;;;8.85;8.15;;;4.40;75.40;;;;;;5073853;28;20212;-55
2022/04/10 06:54:00;;;;;;;9.77;8.98;;;4.40;76.80;;;;;;5073678;28;20205;-55
2022/04/10 06:56:27;;;;;;;10.00;9.27;;;4.50;75.80;;;;;;5073467;28;20640;-55
2022/04/10 06:58:57;;;;;;;9.52;8.77;;;4.60;76.00;;;;;;5072378;28;20201;-56
2022/04/10 07:01:24;;;;;;;9.52;8.73;;;4.70;75.40;;;;;;5073581;28;20228;-55
2022/04/10 07:03:52;;;;;;;10.07;9.13;;;4.90;75.80;;;;;;5073572;28;20732;-55
2022/04/10 07:06:19;;;;;;;9.88;9.07;;;4.90;74.00;;;;;;5073217;28;20266;-55
2022/04/10 07:08:45;;;;;;;10.68;9.68;;;5.10;74.50;;;;;;5073306;28;20316;-55
2022/04/10 07:11:12;;;;;;;9.20;8.40;;;5.20;73.50;;;;;;5073230;28;20739;-56
2022/04/10 07:13:39;;;;;;;9.00;8.20;;;5.20;73.20;;;;;;5072317;28;20626;-55
2022/04/10 07:16:06;;;;;;;9.48;8.68;;;5.30;73.60;;;;;;5072943;28;20292;-55
2022/04/10 07:18:33;;;;;;;9.80;8.93;;;5.40;73.40;;;;;;5073256;28;20681;-55
2022/04/10 07:21:01;;;;;;;9.90;9.05;;;5.60;73.10;;;;;;5073185;28;20209;-55
2022/04/10 07:23:42;;;;;;;9.38;8.57;;;5.60;72.40;;;;;;5073162;28;20258;-55
2022/04/10 07:26:09;;;;;;;11.38;7.93;;;5.40;72.80;;;;;;5073031;28;20212;-55
2022/04/10 07:28:37;;;;;;;9.98;9.00;;;5.20;73.30;;;;;;5071742;28;20233;-55
2022/04/10 07:31:06;;;;;;;9.50;8.75;;;5.30;74.10;;;;;;5073211;28;20842;-56
2022/04/10 07:33:32;;;;;;;9.48;8.15;;;5.50;73.90;;;;;;5073048;28;20216;-56
2022/04/10 07:36:01;;;;;;;9.55;8.70;;;5.40;71.90;;;;;;5072931;28;20216;-55
2022/04/10 07:38:28;;;;;;;10.05;9.20;;;5.50;73.50;;;;;;5072849;28;20200;-55
2022/04/10 07:40:55;;;;;;;9.82;8.90;;;5.70;73.80;;;;;;5072944;28;20196;-56
2022/04/10 07:43:22;;;;;;;9.43;8.52;;;6.00;73.50;;;;;;5071660;28;20696;-56
2022/04/10 07:48:34;;;;;;;10.57;9.63;;;6.40;70.90;;;;;;5072685;28;20235;-56
2022/04/10 07:51:03;;;;;;;9.85;9.15;;;6.40;70.20;;;;;;5072762;28;20663;-56
2022/04/10 07:53:30;;;;;;;9.43;8.65;;;6.40;69.80;;;;;;5072737;28;20205;-56
2022/04/10 07:55:57;;;;;;;10.50;9.60;;;6.40;70.90;;;;;;5072603;28;20207;-56
2022/04/10 07:58:24;;;;;;;10.38;9.57;;;6.50;70.30;;;;;;5071358;28;20211;-56
2022/04/10 08:00:51;;;;;;;10.50;9.55;;;6.50;70.30;;;;;;5072460;28;20296;-56
2022/04/10 08:03:18;;;;;;;11.13;10.23;;;6.60;70.20;;;;;;5072607;28;20602;-56
2022/04/10 08:05:45;;;;;;;10.02;9.13;;;6.60;68.40;;;;;;5072554;28;20255;-56
2022/04/10 08:08:13;;;;;;;11.85;10.85;;;6.70;68.00;;;;;;5072495;28;20687;-56
2022/04/10 08:10:40;;;;;;;10.30;9.48;;;6.70;68.70;;;;;;5072520;28;20236;-56
2022/04/10 08:13:07;;;;;;;10.95;10.05;;;6.80;68.60;;;;;;5071324;28;20204;-56
2022/04/10 08:15:34;;;;;;;11.07;10.15;;;7.00;68.00;;;;;;5072531;28;20204;-56
2022/04/10 08:18:01;;;;;;;11.55;10.55;;;7.10;68.20;;;;;;5072690;28;20208;-56
2022/04/10 08:20:28;;;;;;;10.50;9.70;;;7.20;67.60;;;;;;5072463;28;20682;-53
2022/04/10 08:22:59;;;;;;;10.50;9.52;;;7.30;68.10;;;;;;5072376;28;20210;-55
2022/04/10 08:25:27;;;;;;;10.95;10.05;;;7.30;68.30;;;;;;5072578;28;20567;-55
2022/04/10 08:27:54;;;;;;;11.00;10.15;;;7.50;67.90;;;;;;5073639;28;20232;-55
2022/04/10 08:30:22;;;;;;;11.85;10.68;;;7.70;67.10;;;;;;5076452;28;20499;-55
2022/04/10 08:32:48;;;;;;;10.63;9.63;;;7.60;64.60;;;;;;5076489;28;20288;-55
2022/04/10 08:35:16;;;;;;;10.30;9.52;;;7.30;66.60;;;;;;5076438;28;20204;-55
2022/04/10 08:37:45;;;;;;;10.63;9.73;;;7.20;65.20;;;;;;5076497;28;20208;-56
2022/04/10 08:40:13;;;;;;;9.77;8.93;;;7.20;64.90;;;;;;5076070;28;20208;-56
2022/04/10 08:42:41;;;;;;;10.00;9.20;;;7.20;65.30;;;;;;5074819;28;20656;-56
2022/04/10 08:45:09;;;;;;;10.55;9.65;;;7.10;64.20;;;;;;5076319;28;20280;-56
2022/04/10 08:47:38;;;;;;;9.80;8.80;;;7.20;64.30;;;;;;5076121;28;20260;-56
2022/04/10 08:50:07;;;;;;;8.65;8.05;;;7.20;66.90;;;;;;5076011;28;20208;-56
2022/04/10 08:52:34;;;;;;;10.75;9.95;;;7.50;65.10;;;;;;5075975;28;20208;-56
2022/04/10 08:55:01;;;;;;;10.75;9.88;;;7.70;66.20;;;;;;5076064;28;20207;-53
2022/04/10 08:57:28;;;;;;;10.30;9.48;;;7.90;65.20;;;;;;5074612;28;21172;-56
2022/04/10 08:59:58;;;;;;;10.43;9.60;;;7.90;63.60;;;;;;5075933;28;20211;-56
2022/04/10 09:02:25;;;;;;;9.98;9.27;;;8.00;62.20;;;;;;5075820;28;20651;-54
2022/04/10 09:04:52;;;;;;;10.63;9.73;;;7.90;60.80;;;;;;5075790;28;20240;-56
2022/04/10 09:09:12;;;;;;;8.77;7.97;;;7.80;62.60;;;;;;5090475;27;20974;-56
2022/04/10 09:11:40;;;;;;;10.38;9.45;;;7.70;62.10;;;;;;5090258;28;20200;-55
2022/04/10 09:14:07;;;;;;;9.20;8.50;;;7.70;63.40;;;;;;5088882;28;20200;-55
2022/04/10 09:16:34;;;;;;;10.02;9.32;;;7.80;63.40;;;;;;5090291;28;20570;-55
2022/04/10 09:19:07;;;;;;;8.18;7.50;;;7.90;64.00;;;;;;5090154;28;20650;-55
2022/04/10 09:21:35;;;;;;;9.77;8.90;;;7.90;63.60;;;;;;5090189;28;20208;-56
2022/04/10 09:24:04;;;;;;;10.20;9.50;;;7.90;64.90;;;;;;5089964;28;20200;-55
2022/04/10 09:26:46;;;;;;;10.25;9.27;;;7.60;61.20;;;;;;5089741;28;20563;-56
2022/04/10 09:29:13;;;;;;;9.32;8.55;;;7.40;63.20;;;;;;5088668;28;20208;-56
2022/04/10 09:31:40;;;;;;;9.57;8.85;;;7.40;65.00;;;;;;5089841;28;20200;-56
2022/04/10 09:34:08;;;;;;;8.95;8.07;;;7.40;62.80;;;;;;5089803;28;20234;-55
2022/04/10 09:36:40;;;;;;;10.57;9.77;;;7.60;64.60;;;;;;5089651;28;20219;-55
2022/04/10 09:39:09;;;;;;;8.82;8.13;;;7.70;66.20;;;;;;5089577;28;20212;-56
2022/04/10 09:41:37;;;;;;;10.05;9.30;;;7.80;65.30;;;;;;5089488;28;20204;-56
2022/04/10 09:44:20;;;;;;;10.60;9.90;;;7.90;66.10;;;;;;5088349;28;20200;-56
2022/04/10 09:46:58;;;;;;;9.90;9.20;;;8.00;64.80;;;;;;5089364;28;20208;-56
2022/04/10 09:49:30;;;;;;;9.40;8.70;;;8.10;62.00;;;;;;5089391;28;20203;-56
2022/04/10 09:52:05;;;;;;;9.30;8.68;;;8.10;61.80;;;;;;5089539;28;20295;-55
2022/04/10 09:56:44;;;;;;;9.73;9.02;;;7.90;59.70;;;;;;5090181;27;20602;-55
2022/04/10 09:59:12;;;;;;;9.27;8.57;;;8.00;59.30;;;;;;5089008;28;20299;-55
2022/04/10 10:01:39;;;;;;;9.23;8.63;;;8.10;58.80;;;;;;5090304;28;20210;-55
2022/04/10 10:04:06;;;;;;;10.13;9.40;;;8.20;61.20;;;;;;5090062;28;20206;-55
2022/04/10 10:06:35;;;;;;;9.20;8.60;;;8.40;61.30;;;;;;5090347;28;20289;-55
2022/04/10 10:09:02;;;;;;;8.20;7.70;;;8.50;58.30;;;;;;5090049;28;20204;-56
2022/04/10 10:11:31;;;;;;;8.60;8.00;;;8.50;59.60;;;;;;5089976;28;20210;-56
2022/04/10 10:13:59;;;;;;;9.35;8.65;;;8.70;60.00;;;;;;5088840;28;20242;-56
2022/04/10 10:16:26;;;;;;;9.55;8.77;;;8.80;59.50;;;;;;5090018;28;20236;-56
2022/04/10 10:18:54;;;;;;;8.88;8.27;;;8.90;58.60;;;;;;5089889;28;20222;-56
2022/04/10 10:21:23;;;;;;;10.80;9.80;;;8.90;57.50;;;;;;5089919;28;20295;-55
2022/04/10 10:23:53;;;;;;;9.45;8.65;;;8.90;57.20;;;;;;5089806;28;20207;-55
2022/04/10 10:26:35;;;;;;;9.68;8.95;;;8.80;57.20;;;;;;5089682;28;20227;-55
2022/04/10 10:29:32;;;;;;;8.88;8.20;;;8.70;56.50;;;;;;5088289;28;20207;-55
2022/04/10 10:32:12;;;;;;;8.70;8.10;;;8.70;57.40;;;;;;5089632;28;20279;-56
2022/04/10 10:34:41;;;;;;;8.48;7.97;;;8.70;56.70;;;;;;5089429;28;20204;-55
2022/04/10 10:37:08;;;;;;;9.50;8.82;;;8.60;55.90;;;;;;5089581;28;20200;-54
2022/04/10 10:39:45;;;;;;;9.23;8.70;;;8.50;56.30;;;;;;5089468;28;20228;-54
2022/04/10 10:42:14;;;;;;;9.07;8.52;;;8.30;57.30;;;;;;5087988;28;20204;-54
2022/04/10 10:44:44;;;;;;;9.35;8.75;;;8.40;57.40;;;;;;5089384;28;20211;-54
2022/04/10 10:47:20;;;;;;;9.57;8.88;;;8.40;57.70;;;;;;5089394;28;20290;-55
2022/04/10 10:49:48;;;;;;;8.57;7.97;;;8.50;58.90;;;;;;5089204;28;20204;-55
2022/04/10 10:54:42;;;;;;;10.00;9.30;;;8.00;61.20;;;;;;5110782;27;20674;-55
2022/04/10 10:57:30;;;;;;;10.40;9.70;;;7.80;61.40;;;;;;5109269;28;20203;-56
2022/04/10 11:00:10;;;;;;;10.07;9.40;;;7.70;62.30;;;;;;5110742;28;20203;-55
2022/04/10 11:02:38;;;;;;;11.05;9.80;;;7.80;62.60;;;;;;5110292;28;20199;-56
2022/04/10 11:05:26;;;;;;;9.80;9.10;;;7.80;62.90;;;;;;5110380;28;20226;-55
2022/04/10 11:07:57;;;;;;;10.32;9.43;;;7.90;63.30;;;;;;5110444;28;20668;-55
2022/04/10 11:10:28;;;;;;;12.45;11.35;;;8.00;64.30;;;;;;5110241;28;20253;-55
2022/04/10 11:13:00;;;;;;;10.20;9.25;;;8.20;64.90;;;;;;5108815;28;20282;-55
2022/04/10 11:15:31;;;;;;;10.88;9.82;;;8.30;64.80;;;;;;5110441;28;20207;-55
2022/04/10 11:18:29;;;;;;;9.10;8.35;;;8.60;63.10;;;;;;5110308;28;20209;-56
2022/04/10 11:20:57;;;;;;;11.13;10.13;;;9.30;63.80;;;;;;5110192;28;20215;-56
2022/04/10 11:23:29;;;;;;;10.10;9.35;;;9.90;58.50;;;;;;5110035;28;20212;-55
2022/04/10 11:26:05;;;;;;;10.25;9.23;;;9.70;58.00;;;;;;5110051;28;20279;-56
2022/04/10 11:28:53;;;;;;;10.10;9.35;;;9.40;57.40;;;;;;5108746;28;20214;-56
2022/04/10 11:31:36;;;;;;;11.55;10.52;;;9.20;57.10;;;;;;5109989;28;20207;-56
2022/04/10 11:34:14;;;;;;;11.10;10.10;;;8.70;58.30;;;;;;5109977;28;20238;-55
2022/04/10 11:36:53;;;;;;;10.15;9.32;;;8.30;60.70;;;;;;5109923;28;20564;-56
2022/04/10 11:39:24;;;;;;;9.85;9.05;;;8.30;61.10;;;;;;5109842;28;20206;-54
2022/04/10 11:41:53;;;;;;;11.20;10.30;;;7.90;61.80;;;;;;5109641;28;20294;-54
2022/04/10 11:44:20;;;;;;;11.15;10.25;;;7.50;63.80;;;;;;5108291;28;20202;-54
2022/04/10 11:46:49;;;;;;;9.05;8.25;;;7.40;64.90;;;;;;5109634;28;20203;-54
2022/04/10 11:49:19;;;;;;;8.85;8.15;;;7.40;64.60;;;;;;5109606;28;20203;-56
2022/04/10 11:51:53;;;;;;;10.88;10.18;;;7.40;63.30;;;;;;5109622;28;20208;-54
2022/04/10 11:54:33;;;;;;;10.55;9.65;;;7.40;65.60;;;;;;5128263;28;20274;-56
2022/04/10 11:57:03;;;;;;;11.48;10.68;;;7.70;64.10;;;;;;5129800;28;20202;-56
2022/04/10 11:59:35;;;;;;;9.60;8.90;;;8.00;63.10;;;;;;5129010;28;20199;-56
2022/04/10 12:02:02;;;;;;;10.50;9.70;;;8.30;61.40;;;;;;5129912;28;20203;-56
2022/04/10 12:06:42;;;;;;;11.88;11.02;;;7.90;65.90;;;;;;5090383;28;20631;-56
2022/04/10 12:09:09;;;;;;;11.20;10.45;;;8.50;65.60;;;;;;5090121;28;20200;-56
2022/04/10 12:11:40;;;;;;;10.60;9.82;;;9.20;62.00;;;;;;5089993;28;20204;-56
2022/04/10 12:14:16;;;;;;;11.23;10.43;;;9.60;60.80;;;;;;5088909;28;20204;-56
2022/04/10 12:16:44;;;;;;;10.48;9.77;;;9.50;58.30;;;;;;5090128;28;20206;-56
2022/04/10 12:19:11;;;;;;;9.90;8.95;;;9.20;58.70;;;;;;5090002;28;20235;-55
2022/04/10 12:21:47;;;;;;;10.48;9.43;;;9.20;59.70;;;;;;5089783;28;20210;-55
2022/04/10 12:24:20;;;;;;;10.38;9.68;;;9.50;59.90;;;;;;5089986;28;20210;-56
2022/04/10 12:26:47;;;;;;;8.68;8.10;;;9.90;59.50;;;;;;5089744;28;20599;-56
2022/04/10 12:29:14;;;;;;;8.65;7.57;;;10.50;59.20;;;;;;5088398;28;20204;-56
2022/04/10 12:31:42;;;;;;;9.75;9.05;;;11.10;60.00;;;;;;5089814;28;20659;-56
2022/04/10 12:34:11;;;;;;;10.00;9.40;;;11.70;55.80;;;;;;5089742;28;20287;-56
2022/04/10 12:37:05;;;;;;;10.57;9.88;;;11.80;53.70;;;;;;5089718;28;20228;-56
2022/04/10 12:39:34;;;;;;;9.13;8.50;;;11.90;53.60;;;;;;5089695;28;20655;-54
2022/04/10 12:42:02;;;;;;;10.18;9.48;;;12.40;48.90;;;;;;5089451;28;20211;-54
2022/04/10 12:44:29;;;;;;;10.85;10.05;;;12.60;55.10;;;;;;5088636;28;20258;-54
2022/04/10 12:46:57;;;;;;;11.55;10.60;;;12.90;53.20;;;;;;5089576;28;20207;-54
2022/04/10 12:49:25;;;;;;;8.75;8.05;;;13.10;53.60;;;;;;5089542;28;20200;-54
2022/04/10 12:51:54;;;;;;;10.65;9.95;;;13.40;52.20;;;;;;5089403;28;20204;-54
2022/04/10 12:54:35;;;;;;;10.63;9.93;;;13.40;52.10;;;;;;5089385;28;20196;-54
2022/04/10 12:58:51;;;;;;;10.57;9.85;;;13.60;51.50;;;;;;5089088;28;20614;-55
2022/04/10 13:02:22;;;;;;;10.90;10.20;;;13.30;50.80;;;;;;5131357;27;20610;-56
2022/04/10 13:04:56;;;;;;;10.52;9.82;;;12.70;52.70;;;;;;5130995;28;20708;-56
2022/04/10 13:07:23;;;;;;;10.88;10.18;;;12.60;54.40;;;;;;5131360;27;20305;-56
2022/04/10 13:09:52;;;;;;;10.55;9.85;;;12.50;54.20;;;;;;5130973;27;20245;-56
2022/04/10 13:12:23;;;;;;;9.52;8.70;;;12.40;53.90;;;;;;5129488;27;20208;-56
2022/04/10 13:14:51;;;;;;;10.60;9.90;;;12.20;52.80;;;;;;5130957;27;20206;-56
2022/04/10 13:17:19;;;;;;;9.68;8.98;;;12.00;54.00;;;;;;5130793;27;20543;-55
2022/04/10 13:19:47;;;;;;;10.30;9.60;;;11.90;53.30;;;;;;5130807;27;20199;-55